createdAt,value
2017-03-04T00:00:01.645Z,93.18
2017-03-04T00:00:16.327Z,92.89
2017-03-04T00:00:31.065Z,92.99
2017-03-04T00:00:45.689Z,92.8
2017-03-04T00:01:00.531Z,92.8
2017-03-04T00:01:15.179Z,92.89
2017-03-04T00:01:29.858Z,93.18
2017-03-04T00:01:44.447Z,93.18
2017-03-04T00:01:59.064Z,92.99
2017-03-04T00:02:13.708Z,92.6
2017-03-04T00:02:28.387Z,92.7
2017-03-04T00:02:43.020Z,92.89
2017-03-04T00:02:57.619Z,92.6
2017-03-04T00:03:12.295Z,92.89
2017-03-04T00:03:26.967Z,92.89
2017-03-04T00:03:41.571Z,92.99
2017-03-04T00:03:56.183Z,92.89
2017-03-04T00:04:10.863Z,93.08
2017-03-04T00:04:25.498Z,93.08
2017-03-04T00:04:40.103Z,92.89
2017-03-04T00:04:54.779Z,92.99
2017-03-04T00:05:09.447Z,93.08
2017-03-04T00:05:24.099Z,92.99
2017-03-04T00:05:38.777Z,92.89
2017-03-04T00:05:53.463Z,92.99
2017-03-04T00:06:08.105Z,92.89
2017-03-04T00:06:22.801Z,92.7
2017-03-04T00:06:37.425Z,92.99
2017-03-04T00:06:52.067Z,93.08
2017-03-04T00:07:06.655Z,92.89
2017-03-04T00:07:21.264Z,92.99
2017-03-04T00:07:35.925Z,92.99
2017-03-04T00:07:50.608Z,92.99
2017-03-04T00:08:05.279Z,92.99
2017-03-04T00:08:19.898Z,92.89
2017-03-04T00:08:35.021Z,92.89
2017-03-04T00:08:49.689Z,92.99
2017-03-04T00:09:04.284Z,93.08
2017-03-04T00:09:18.836Z,92.7
2017-03-04T00:09:33.512Z,92.5
2017-03-04T00:09:48.167Z,92.8
2017-03-04T00:10:02.788Z,92.89
2017-03-04T00:10:17.416Z,92.8
2017-03-04T00:10:32.035Z,92.99
2017-03-04T00:10:46.664Z,92.7
2017-03-04T00:11:01.372Z,92.5
2017-03-04T00:11:16.025Z,92.6
2017-03-04T00:11:30.793Z,92.6
2017-03-04T00:11:45.522Z,92.6
2017-03-04T00:12:00.232Z,92.5
2017-03-04T00:12:14.856Z,92.5
2017-03-04T00:12:29.478Z,92.8
2017-03-04T00:12:44.140Z,92.99
2017-03-04T00:12:58.701Z,92.5
2017-03-04T00:13:13.315Z,92.99
2017-03-04T00:13:27.948Z,92.99
2017-03-04T00:13:42.639Z,92.8
2017-03-04T00:13:57.312Z,92.89
2017-03-04T00:14:12.016Z,92.89
2017-03-04T00:14:26.622Z,92.89
2017-03-04T00:14:41.219Z,92.7
2017-03-04T00:14:55.904Z,92.5
2017-03-04T00:15:10.525Z,92.89
2017-03-04T00:15:25.208Z,92.99
2017-03-04T00:15:39.818Z,92.7
2017-03-04T00:15:54.440Z,92.5
2017-03-04T00:16:09.352Z,92.7
2017-03-04T00:16:24.027Z,92.8
2017-03-04T00:16:38.727Z,92.46
2017-03-04T00:16:53.367Z,92.7
2017-03-04T00:17:07.952Z,93.04
2017-03-04T00:17:22.583Z,92.99
2017-03-04T00:17:37.232Z,92.65
2017-03-04T00:17:51.913Z,93.04
2017-03-04T00:18:09.649Z,92.75
2017-03-04T00:18:24.336Z,92.85
2017-03-04T00:18:39.018Z,92.7
2017-03-04T00:18:53.594Z,92.5
2017-03-04T00:19:08.282Z,92.7
2017-03-04T00:19:22.983Z,92.89
2017-03-04T00:19:37.666Z,92.94
2017-03-04T00:19:52.358Z,92.99
2017-03-04T00:20:06.931Z,92.89
2017-03-04T00:20:21.603Z,92.65
2017-03-04T00:20:36.302Z,92.5
2017-03-04T00:20:50.908Z,92.36
2017-03-04T00:21:05.524Z,92.36
2017-03-04T00:21:20.188Z,92.8
2017-03-04T00:21:34.832Z,92.56
2017-03-04T00:21:49.501Z,92.41
2017-03-04T00:22:04.172Z,92.56
2017-03-04T00:22:18.851Z,92.36
2017-03-04T00:22:33.506Z,92.75
2017-03-04T00:22:48.156Z,92.65
2017-03-04T00:23:02.836Z,92.56
2017-03-04T00:23:17.432Z,92.46
2017-03-04T00:23:32.093Z,92.27
2017-03-04T00:23:47.002Z,92.56
2017-03-04T00:24:01.616Z,92.65
2017-03-04T00:24:16.309Z,92.27
2017-03-04T00:24:32.963Z,92.6
2017-03-04T00:24:47.612Z,92.56
2017-03-04T00:25:02.273Z,92.17
2017-03-04T00:25:16.915Z,92.5
2017-03-04T00:25:31.590Z,92.46
2017-03-04T00:25:46.276Z,92.46
2017-03-04T00:26:00.934Z,92.65
2017-03-04T00:26:15.561Z,92.36
2017-03-04T00:26:30.279Z,92.08
2017-03-04T00:26:44.835Z,92.56
2017-03-04T00:26:59.467Z,92.56
2017-03-04T00:27:14.089Z,92.27
2017-03-04T00:27:28.699Z,92.17
2017-03-04T00:27:43.342Z,92.36
2017-03-04T00:27:58.001Z,92.56
2017-03-04T00:28:12.631Z,92.17
2017-03-04T00:28:27.283Z,91.78
2017-03-04T00:28:42.237Z,92.08
2017-03-04T00:28:56.910Z,91.5
2017-03-04T00:29:11.557Z,91.6
2017-03-04T00:29:26.171Z,91.6
2017-03-04T00:29:40.767Z,91.5
2017-03-04T00:29:55.430Z,91.69
2017-03-04T00:30:10.121Z,91.69
2017-03-04T00:30:24.742Z,91.6
2017-03-04T00:30:39.377Z,91.69
2017-03-04T00:30:54.008Z,91.69
2017-03-04T00:31:09.069Z,91.88
2017-03-04T00:31:23.792Z,91.69
2017-03-04T00:31:38.478Z,91.5
2017-03-04T00:31:53.130Z,91.69
2017-03-04T00:32:07.776Z,91.5
2017-03-04T00:32:22.438Z,91.88
2017-03-04T00:32:37.113Z,91.69
2017-03-04T00:32:51.835Z,91.4
2017-03-04T00:33:06.433Z,91.4
2017-03-04T00:33:21.098Z,91.11
2017-03-04T00:33:35.711Z,91.2
2017-03-04T00:33:50.398Z,90.39
2017-03-04T00:34:05.058Z,90.44
2017-03-04T00:34:19.695Z,90.68
2017-03-04T00:34:35.575Z,90.34
2017-03-04T00:34:50.225Z,90.05
2017-03-04T00:35:04.850Z,89.76
2017-03-04T00:35:19.528Z,89.86
2017-03-04T00:35:34.156Z,90.05
2017-03-04T00:35:48.857Z,89.47
2017-03-04T00:36:03.559Z,89.14
2017-03-04T00:36:18.210Z,89.23
2017-03-04T00:36:32.879Z,89.33
2017-03-04T00:36:47.550Z,88.95
2017-03-04T00:37:02.266Z,88.65
2017-03-04T00:37:16.837Z,88.46
2017-03-04T00:37:31.487Z,88.65
2017-03-04T00:37:46.140Z,87.88
2017-03-04T00:38:00.827Z,87.79
2017-03-04T00:38:15.490Z,87.5
2017-03-04T00:38:31.136Z,86.82
2017-03-04T00:38:45.770Z,86.92
2017-03-04T00:39:00.398Z,86.82
2017-03-04T00:39:15.075Z,86.63
2017-03-04T00:39:29.735Z,86.63
2017-03-04T00:39:44.432Z,86.35
2017-03-04T00:39:59.042Z,86.44
2017-03-04T00:40:13.641Z,85.77
2017-03-04T00:40:28.309Z,85.57
2017-03-04T00:40:42.961Z,85.77
2017-03-04T00:40:57.636Z,85.67
2017-03-04T00:41:12.397Z,85.67
2017-03-04T00:41:27.116Z,85.67
2017-03-04T00:41:41.763Z,85.57
2017-03-04T00:41:56.352Z,85.47
2017-03-04T00:42:11.010Z,85.57
2017-03-04T00:42:25.673Z,85.47
2017-03-04T00:42:40.374Z,84.99
2017-03-04T00:42:55.015Z,84.9
2017-03-04T00:43:09.702Z,85.09
2017-03-04T00:43:24.371Z,85.09
2017-03-04T00:43:38.999Z,85.09
2017-03-04T00:43:53.619Z,84.8
2017-03-04T00:44:08.238Z,84.7
2017-03-04T00:44:22.931Z,84.9
2017-03-04T00:44:37.625Z,84.22
2017-03-04T00:44:52.224Z,84.7
2017-03-04T00:45:06.860Z,84.7
2017-03-04T00:45:21.524Z,84.52
2017-03-04T00:45:36.144Z,84.7
2017-03-04T00:45:50.929Z,84.32
2017-03-04T00:46:05.555Z,83.94
2017-03-04T00:46:20.749Z,83.94
2017-03-04T00:46:36.968Z,84.12
2017-03-04T00:46:51.607Z,84.32
2017-03-04T00:47:06.279Z,84.03
2017-03-04T00:47:20.959Z,84.32
2017-03-04T00:47:35.670Z,84.22
2017-03-04T00:47:50.570Z,83.84
2017-03-04T00:48:05.200Z,83.84
2017-03-04T00:48:19.854Z,84.22
2017-03-04T00:48:34.911Z,83.84
2017-03-04T00:48:53.361Z,83.74
2017-03-04T00:49:08.015Z,83.74
2017-03-04T00:49:22.679Z,84.12
2017-03-04T00:49:37.323Z,83.84
2017-03-04T00:49:51.947Z,83.64
2017-03-04T00:50:06.796Z,83.45
2017-03-04T00:50:21.401Z,83.74
2017-03-04T00:50:36.072Z,83.45
2017-03-04T00:50:50.697Z,83.45
2017-03-04T00:51:05.293Z,83.36
2017-03-04T00:51:19.987Z,83.16
2017-03-04T00:51:34.601Z,83.36
2017-03-04T00:51:49.278Z,83.59
2017-03-04T00:52:03.957Z,83.4
2017-03-04T00:52:18.535Z,83.36
2017-03-04T00:52:33.218Z,83.36
2017-03-04T00:52:47.840Z,83.26
2017-03-04T00:53:02.456Z,83.4
2017-03-04T00:53:17.099Z,83.26
2017-03-04T00:53:31.666Z,83.4
2017-03-04T00:53:46.322Z,83.16
2017-03-04T00:54:00.955Z,83.3
2017-03-04T00:54:15.569Z,83.26
2017-03-04T00:54:30.191Z,83.4
2017-03-04T00:54:44.860Z,83.45
2017-03-04T00:54:59.514Z,83.3
2017-03-04T00:55:14.095Z,83.11
2017-03-04T00:55:28.780Z,83.11
2017-03-04T00:55:43.391Z,82.92
2017-03-04T00:55:58.070Z,83.01
2017-03-04T00:56:12.833Z,83.4
2017-03-04T00:56:27.489Z,83.11
2017-03-04T00:56:42.161Z,83.3
2017-03-04T00:56:56.737Z,83.3
2017-03-04T00:57:11.405Z,83.3
2017-03-04T00:57:26.025Z,82.92
2017-03-04T00:57:40.629Z,83.4
2017-03-04T00:57:55.256Z,83.59
2017-03-04T00:58:09.927Z,83.2
2017-03-04T00:58:24.557Z,83.4
2017-03-04T00:58:39.296Z,83.11
2017-03-04T00:58:53.957Z,83.4
2017-03-04T00:59:08.620Z,83.3
2017-03-04T00:59:23.297Z,83.59
2017-03-04T00:59:38.110Z,83.59
2017-03-04T00:59:52.723Z,83.4
2017-03-04T01:00:07.335Z,83.59
2017-03-04T01:00:22.003Z,83.5
2017-03-04T01:00:36.672Z,83.2
2017-03-04T01:00:51.338Z,83.4
2017-03-04T01:01:05.947Z,83.5
2017-03-04T01:01:20.973Z,83.4
2017-03-04T01:01:35.612Z,83.4
2017-03-04T01:01:50.293Z,83.4
2017-03-04T01:02:04.931Z,83.4
2017-03-04T01:02:19.584Z,83.5
2017-03-04T01:02:34.232Z,83.4
2017-03-04T01:02:48.875Z,83.3
2017-03-04T01:03:03.535Z,83.2
2017-03-04T01:03:18.130Z,83.5
2017-03-04T01:03:32.778Z,84.17
2017-03-04T01:03:47.458Z,84.17
2017-03-04T01:04:02.101Z,83.4
2017-03-04T01:04:16.692Z,84.36
2017-03-04T01:04:31.338Z,83.88
2017-03-04T01:04:46.050Z,83.78
2017-03-04T01:05:00.750Z,84.17
2017-03-04T01:05:15.419Z,83.5
2017-03-04T01:05:30.084Z,84.17
2017-03-04T01:05:44.674Z,84.17
2017-03-04T01:05:59.311Z,84.27
2017-03-04T01:06:13.957Z,84.17
2017-03-04T01:06:28.621Z,84.17
2017-03-04T01:06:43.288Z,84.36
2017-03-04T01:06:57.867Z,84.17
2017-03-04T01:07:12.539Z,84.17
2017-03-04T01:07:30.300Z,83.98
2017-03-04T01:07:44.904Z,84.17
2017-03-04T01:07:59.583Z,84.07
2017-03-04T01:08:14.423Z,84.17
2017-03-04T01:08:29.041Z,84.07
2017-03-04T01:08:43.679Z,84.07
2017-03-04T01:08:58.280Z,84.17
2017-03-04T01:09:13.665Z,84.17
2017-03-04T01:09:28.280Z,83.4
2017-03-04T01:09:42.881Z,84.36
2017-03-04T01:09:57.533Z,83.5
2017-03-04T01:10:15.839Z,84.17
2017-03-04T01:10:30.558Z,83.98
2017-03-04T01:10:45.179Z,83.5
2017-03-04T01:10:59.828Z,83.2
2017-03-04T01:11:14.467Z,83.4
2017-03-04T01:11:29.275Z,83.4
2017-03-04T01:11:43.886Z,83.4
2017-03-04T01:11:58.535Z,83.5
2017-03-04T01:12:13.401Z,83.5
2017-03-04T01:12:28.049Z,83.2
2017-03-04T01:12:42.718Z,83.3
2017-03-04T01:12:57.386Z,83.69
2017-03-04T01:13:12.073Z,83.5
2017-03-04T01:13:26.693Z,83.3
2017-03-04T01:13:41.294Z,83.3
2017-03-04T01:13:55.920Z,83.07
2017-03-04T01:14:10.526Z,83.11
2017-03-04T01:14:25.122Z,83.36
2017-03-04T01:14:39.783Z,83.45
2017-03-04T01:14:54.442Z,83.2
2017-03-04T01:15:09.120Z,83.01
2017-03-04T01:15:23.766Z,83.59
2017-03-04T01:15:38.458Z,82.92
2017-03-04T01:15:53.123Z,82.82
2017-03-04T01:16:07.721Z,83.4
2017-03-04T01:16:22.701Z,83.3
2017-03-04T01:16:37.290Z,83.3
2017-03-04T01:16:51.936Z,82.82
2017-03-04T01:17:06.532Z,82.92
2017-03-04T01:17:21.149Z,83.11
2017-03-04T01:17:38.855Z,82.82
2017-03-04T01:17:53.471Z,82.82
2017-03-04T01:18:08.111Z,82.92
2017-03-04T01:18:22.895Z,82.82
2017-03-04T01:18:37.513Z,82.92
2017-03-04T01:18:52.145Z,82.82
2017-03-04T01:19:06.791Z,82.82
2017-03-04T01:19:21.403Z,82.92
2017-03-04T01:19:36.032Z,82.82
2017-03-04T01:20:21.836Z,83.01
2017-03-04T01:20:36.510Z,82.92
2017-03-04T01:20:51.150Z,82.92
2017-03-04T01:21:06.527Z,83.01
2017-03-04T01:21:24.556Z,82.92
2017-03-04T01:22:10.349Z,82.92
2017-03-04T01:22:24.954Z,82.92
2017-03-04T01:22:39.608Z,82.82
2017-03-04T01:22:59.111Z,82.82
2017-03-04T01:24:03.880Z,82.82
2017-03-04T01:24:18.509Z,82.82
2017-03-04T01:24:33.104Z,82.72
2017-03-04T01:24:47.706Z,83.11
2017-03-04T01:25:02.357Z,83.2
2017-03-04T01:25:16.924Z,83.11
2017-03-04T01:25:32.599Z,82.34
2017-03-04T01:25:47.136Z,83.11
2017-03-04T01:26:01.825Z,82.43
2017-03-04T01:26:16.504Z,83.11
2017-03-04T01:26:32.040Z,82.82
2017-03-04T01:26:46.866Z,82.82
2017-03-04T01:27:04.761Z,82.53
2017-03-04T01:27:19.373Z,83.2
2017-03-04T01:27:34.038Z,82.92
2017-03-04T01:27:48.725Z,82.82
2017-03-04T01:28:03.352Z,82.43
2017-03-04T01:28:17.987Z,82.72
2017-03-04T01:28:32.640Z,82.82
2017-03-04T01:28:47.293Z,82.92
2017-03-04T01:29:01.945Z,82.92
2017-03-04T01:29:16.511Z,82.82
2017-03-04T01:29:31.127Z,82.82
2017-03-04T01:29:45.770Z,82.43
2017-03-04T01:30:00.435Z,82.82
2017-03-04T01:30:15.286Z,82.92
2017-03-04T01:30:29.866Z,82.82
2017-03-04T01:30:44.445Z,82.82
2017-03-04T01:30:59.150Z,83.01
2017-03-04T01:31:13.731Z,82.82
2017-03-04T01:31:28.719Z,82.82
2017-03-04T01:31:43.352Z,82.72
2017-03-04T01:31:57.944Z,82.82
2017-03-04T01:32:12.541Z,82.92
2017-03-04T01:32:27.162Z,82.62
2017-03-04T01:32:42.449Z,82.62
2017-03-04T01:32:57.102Z,83.01
2017-03-04T01:33:11.933Z,83.2
2017-03-04T01:33:26.563Z,83.4
2017-03-04T01:33:41.151Z,83.69
2017-03-04T01:33:55.813Z,83.11
2017-03-04T01:34:10.456Z,83.59
2017-03-04T01:34:25.392Z,83.36
2017-03-04T01:34:40.127Z,83.16
2017-03-04T01:34:54.742Z,83.4
2017-03-04T01:35:09.353Z,83.45
2017-03-04T01:35:23.911Z,83.4
2017-03-04T01:35:38.588Z,83.4
2017-03-04T01:35:54.494Z,83.2
2017-03-04T01:36:09.100Z,83.36
2017-03-04T01:36:23.758Z,83.26
2017-03-04T01:36:38.904Z,83.26
2017-03-04T01:36:53.561Z,83.26
2017-03-04T01:37:08.201Z,83.36
2017-03-04T01:37:22.791Z,83.26
2017-03-04T01:37:37.415Z,83.45
2017-03-04T01:37:52.047Z,83.36
2017-03-04T01:38:10.522Z,83.36
2017-03-04T01:38:46.818Z,83.36
2017-03-04T01:39:02.585Z,83.45
2017-03-04T01:39:17.194Z,83.07
2017-03-04T01:39:31.865Z,83.26
2017-03-04T01:39:46.759Z,83.16
2017-03-04T01:40:01.441Z,83.45
2017-03-04T01:40:16.041Z,83.45
2017-03-04T01:40:30.667Z,83.36
2017-03-04T01:40:48.661Z,83.45
2017-03-04T01:41:03.370Z,83.45
2017-03-04T01:41:18.033Z,83.36
2017-03-04T01:41:37.621Z,83.26
2017-03-04T01:41:52.297Z,83.36
2017-03-04T01:42:06.946Z,83.16
2017-03-04T01:42:21.556Z,83.36
2017-03-04T01:42:37.370Z,83.36
2017-03-04T01:42:52.016Z,83.45
2017-03-04T01:43:06.644Z,83.45
2017-03-04T01:43:21.233Z,83.55
2017-03-04T01:43:40.775Z,83.45
2017-03-04T01:43:55.458Z,83.36
2017-03-04T01:44:10.083Z,82.97
2017-03-04T01:44:24.763Z,83.45
2017-03-04T01:44:39.428Z,83.26
2017-03-04T01:44:54.278Z,83.26
2017-03-04T01:45:09.206Z,83.16
2017-03-04T01:45:23.795Z,83.36
2017-03-04T01:45:38.523Z,83.16
2017-03-04T01:45:53.128Z,83.26
2017-03-04T01:46:07.735Z,83.26
2017-03-04T01:46:22.406Z,83.16
2017-03-04T01:46:37.511Z,83.26
2017-03-04T01:46:52.142Z,83.07
2017-03-04T01:47:06.711Z,83.16
2017-03-04T01:47:22.544Z,83.16
2017-03-04T01:47:37.928Z,83.16
2017-03-04T01:47:52.500Z,83.07
2017-03-04T01:48:07.082Z,83.36
2017-03-04T01:48:21.717Z,83.26
2017-03-04T01:48:36.308Z,83.36
2017-03-04T01:48:50.957Z,83.26
2017-03-04T01:49:05.598Z,83.07
2017-03-04T01:49:20.269Z,83.36
2017-03-04T01:49:35.097Z,83.16
2017-03-04T01:49:49.731Z,83.36
2017-03-04T01:50:04.345Z,83.36
2017-03-04T01:50:18.999Z,82.97
2017-03-04T01:50:33.734Z,83.26
2017-03-04T01:50:49.540Z,83.26
2017-03-04T01:51:04.246Z,83.16
2017-03-04T01:51:18.935Z,83.36
2017-03-04T01:51:33.583Z,83.36
2017-03-04T01:51:48.310Z,83.16
2017-03-04T01:52:02.988Z,83.16
2017-03-04T01:52:17.637Z,83.16
2017-03-04T01:53:51.998Z,83.36
2017-03-04T01:54:06.647Z,82.97
2017-03-04T01:54:21.309Z,83.36
2017-03-04T01:54:35.937Z,82.78
2017-03-04T01:54:50.534Z,82.87
2017-03-04T01:55:05.142Z,82.68
2017-03-04T01:55:19.826Z,83.26
2017-03-04T01:56:05.384Z,82.87
2017-03-04T01:56:20.040Z,82.68
2017-03-04T01:56:34.735Z,82.87
2017-03-04T01:56:49.476Z,83.36
2017-03-04T01:57:04.175Z,83.16
2017-03-04T01:57:18.828Z,83.45
2017-03-04T01:57:33.468Z,82.87
2017-03-04T01:57:48.159Z,82.78
2017-03-04T01:58:02.831Z,82.97
2017-03-04T01:58:17.425Z,82.82
2017-03-04T01:58:31.985Z,82.87
2017-03-04T01:58:46.606Z,82.92
2017-03-04T01:59:01.235Z,82.92
2017-03-04T01:59:15.817Z,83.01
2017-03-04T01:59:30.417Z,82.87
2017-03-04T01:59:45.044Z,82.62
2017-03-04T01:59:59.663Z,82.87
2017-03-04T02:00:14.342Z,82.92
2017-03-04T02:00:28.933Z,82.87
2017-03-04T02:00:43.500Z,82.87
2017-03-04T02:00:58.096Z,83.07
2017-03-04T02:01:12.778Z,82.82
2017-03-04T02:01:27.465Z,82.87
2017-03-04T02:01:42.134Z,82.92
2017-03-04T02:01:57.071Z,82.68
2017-03-04T02:02:11.722Z,82.92
2017-03-04T02:02:26.274Z,82.87
2017-03-04T02:02:40.884Z,82.78
2017-03-04T02:02:55.557Z,82.72
2017-03-04T02:03:10.232Z,82.68
2017-03-04T02:03:24.907Z,82.78
2017-03-04T02:03:39.525Z,82.78
2017-03-04T02:03:54.161Z,82.87
2017-03-04T02:04:08.752Z,82.97
2017-03-04T02:04:23.395Z,83.11
2017-03-04T02:04:37.989Z,83.2
2017-03-04T02:04:52.631Z,82.92
2017-03-04T02:05:07.225Z,83.01
2017-03-04T02:05:21.795Z,82.92
2017-03-04T02:05:36.435Z,82.39
2017-03-04T02:05:51.065Z,82.82
2017-03-04T02:06:05.695Z,82.92
2017-03-04T02:06:20.330Z,82.78
2017-03-04T02:06:34.936Z,82.78
2017-03-04T02:06:49.640Z,82.39
2017-03-04T02:07:04.227Z,83.16
2017-03-04T02:07:18.899Z,82.82
2017-03-04T02:07:33.552Z,83.01
2017-03-04T02:07:48.139Z,83.16
2017-03-04T02:08:02.731Z,82.39
2017-03-04T02:08:17.371Z,82.2
2017-03-04T02:08:32.008Z,82.34
2017-03-04T02:08:46.553Z,83.07
2017-03-04T02:09:01.163Z,83.16
2017-03-04T02:09:15.745Z,83.07
2017-03-04T02:09:30.356Z,82.39
2017-03-04T02:09:44.967Z,82.39
2017-03-04T02:09:59.536Z,82.87
2017-03-04T02:10:14.160Z,82.87
2017-03-04T02:10:28.796Z,82.43
2017-03-04T02:10:43.403Z,82.39
2017-03-04T02:10:58.015Z,82.53
2017-03-04T02:11:12.621Z,82.43
2017-03-04T02:11:27.184Z,82.39
2017-03-04T02:11:41.744Z,82.53
2017-03-04T02:11:56.342Z,82.34
2017-03-04T02:12:11.007Z,82.59
2017-03-04T02:12:25.586Z,82.24
2017-03-04T02:12:40.254Z,82.39
2017-03-04T02:12:54.808Z,82.39
2017-03-04T02:13:09.418Z,82.29
2017-03-04T02:13:24.023Z,82.2
2017-03-04T02:13:38.578Z,82.29
2017-03-04T02:13:53.158Z,82.49
2017-03-04T02:14:07.734Z,82.49
2017-03-04T02:14:22.384Z,82.39
2017-03-04T02:14:36.988Z,82.53
2017-03-04T02:14:51.619Z,82.49
2017-03-04T02:15:06.253Z,82.53
2017-03-04T02:15:20.905Z,82.39
2017-03-04T02:15:35.509Z,82.49
2017-03-04T02:15:50.180Z,82.53
2017-03-04T02:16:04.830Z,82.49
2017-03-04T02:16:19.453Z,82.59
2017-03-04T02:16:34.080Z,82.62
2017-03-04T02:16:48.714Z,82.39
2017-03-04T02:17:03.682Z,82.62
2017-03-04T02:17:18.277Z,82.49
2017-03-04T02:17:32.889Z,82.62
2017-03-04T02:17:47.517Z,82.68
2017-03-04T02:18:02.088Z,82.39
2017-03-04T02:18:16.721Z,82.49
2017-03-04T02:18:31.317Z,82.49
2017-03-04T02:18:45.934Z,82.68
2017-03-04T02:19:00.556Z,82.1
2017-03-04T02:19:15.235Z,82.53
2017-03-04T02:19:29.807Z,82.29
2017-03-04T02:19:44.383Z,82.39
2017-03-04T02:19:58.959Z,81.91
2017-03-04T02:20:13.591Z,81.85
2017-03-04T02:20:28.206Z,81.95
2017-03-04T02:20:42.853Z,81.91
2017-03-04T02:20:57.525Z,82.05
2017-03-04T02:21:12.053Z,81.81
2017-03-04T02:21:26.714Z,82.01
2017-03-04T02:21:41.342Z,81.91
2017-03-04T02:21:55.966Z,81.91
2017-03-04T02:22:10.566Z,81.91
2017-03-04T02:22:25.176Z,81.91
2017-03-04T02:22:39.775Z,81.81
2017-03-04T02:22:54.404Z,81.91
2017-03-04T02:23:08.973Z,82.01
2017-03-04T02:23:23.569Z,81.91
2017-03-04T02:23:38.172Z,81.91
2017-03-04T02:23:52.837Z,81.91
2017-03-04T02:24:07.511Z,81.91
2017-03-04T02:24:22.090Z,81.91
2017-03-04T02:24:36.706Z,82.1
2017-03-04T02:24:51.304Z,82.01
2017-03-04T02:25:05.952Z,82.29
2017-03-04T02:25:20.567Z,81.81
2017-03-04T02:25:35.145Z,82.01
2017-03-04T02:25:49.685Z,81.72
2017-03-04T02:26:04.475Z,81.91
2017-03-04T02:26:19.084Z,81.81
2017-03-04T02:26:33.710Z,81.62
2017-03-04T02:26:48.354Z,81.62
2017-03-04T02:27:02.890Z,81.66
2017-03-04T02:27:17.485Z,81.72
2017-03-04T02:27:32.108Z,81.72
2017-03-04T02:27:46.694Z,81.85
2017-03-04T02:28:01.251Z,81.85
2017-03-04T02:28:15.906Z,81.57
2017-03-04T02:28:30.559Z,81.62
2017-03-04T02:28:45.203Z,81.91
2017-03-04T02:28:59.817Z,81.72
2017-03-04T02:29:14.407Z,81.66
2017-03-04T02:29:29.013Z,81.72
2017-03-04T02:29:43.608Z,81.72
2017-03-04T02:29:58.198Z,81.72
2017-03-04T02:30:12.849Z,81.66
2017-03-04T02:30:27.468Z,81.72
2017-03-04T02:30:42.078Z,81.81
2017-03-04T02:30:56.774Z,82.01
2017-03-04T02:31:11.363Z,81.81
2017-03-04T02:31:25.987Z,81.91
2017-03-04T02:31:40.575Z,81.91
2017-03-04T02:31:55.159Z,81.91
2017-03-04T02:32:10.034Z,81.81
2017-03-04T02:32:24.654Z,82.01
2017-03-04T02:32:39.199Z,81.91
2017-03-04T02:32:53.761Z,81.81
2017-03-04T02:33:08.436Z,81.81
2017-03-04T02:33:23.061Z,81.81
2017-03-04T02:33:37.659Z,81.81
2017-03-04T02:33:52.265Z,81.81
2017-03-04T02:34:06.838Z,82.1
2017-03-04T02:34:21.434Z,81.62
2017-03-04T02:34:36.101Z,81.62
2017-03-04T02:34:50.684Z,81.72
2017-03-04T02:35:05.279Z,81.52
2017-03-04T02:35:19.959Z,80.76
2017-03-04T02:35:34.620Z,81.43
2017-03-04T02:35:49.155Z,81.24
2017-03-04T02:36:03.830Z,81.33
2017-03-04T02:36:18.448Z,81.24
2017-03-04T02:36:33.070Z,81.14
2017-03-04T02:36:47.650Z,81.43
2017-03-04T02:37:02.300Z,81.14
2017-03-04T02:37:16.927Z,81.43
2017-03-04T02:37:31.561Z,81.43
2017-03-04T02:37:46.180Z,81.33
2017-03-04T02:38:00.765Z,81.04
2017-03-04T02:38:15.448Z,80.76
2017-03-04T02:38:30.086Z,80.94
2017-03-04T02:38:44.659Z,80.66
2017-03-04T02:38:59.285Z,80.85
2017-03-04T02:39:13.861Z,80.56
2017-03-04T02:39:28.397Z,80.37
2017-03-04T02:39:42.973Z,80.85
2017-03-04T02:39:57.574Z,80.37
2017-03-04T02:40:12.216Z,80.37
2017-03-04T02:40:26.841Z,80.08
2017-03-04T02:40:41.521Z,79.69
2017-03-04T02:40:56.130Z,79.89
2017-03-04T02:41:10.755Z,79.69
2017-03-04T02:41:25.423Z,79.41
2017-03-04T02:41:40.058Z,79.69
2017-03-04T02:41:54.679Z,79.31
2017-03-04T02:42:09.327Z,79.69
2017-03-04T02:42:23.937Z,79.6
2017-03-04T02:42:38.537Z,79.5
2017-03-04T02:42:53.144Z,79.79
2017-03-04T02:43:07.699Z,79.6
2017-03-04T02:43:22.344Z,79.6
2017-03-04T02:43:37.001Z,79.64
2017-03-04T02:43:51.547Z,79.69
2017-03-04T02:44:06.195Z,79.74
2017-03-04T02:44:20.785Z,79.79
2017-03-04T02:44:35.385Z,79.79
2017-03-04T02:44:50.004Z,79.69
2017-03-04T02:45:04.580Z,79.69
2017-03-04T02:45:19.164Z,79.6
2017-03-04T02:45:33.674Z,79.89
2017-03-04T02:45:48.307Z,79.89
2017-03-04T02:46:02.956Z,79.89
2017-03-04T02:46:17.546Z,79.89
2017-03-04T02:46:32.177Z,79.79
2017-03-04T02:46:46.841Z,79.79
2017-03-04T02:47:01.427Z,80.08
2017-03-04T02:47:16.267Z,79.79
2017-03-04T02:47:30.833Z,79.6
2017-03-04T02:47:45.427Z,79.79
2017-03-04T02:47:59.990Z,79.69
2017-03-04T02:48:14.587Z,79.79
2017-03-04T02:48:29.228Z,79.6
2017-03-04T02:48:43.874Z,79.6
2017-03-04T02:48:58.500Z,79.69
2017-03-04T02:49:13.123Z,79.6
2017-03-04T02:49:27.712Z,79.41
2017-03-04T02:49:42.264Z,79.21
2017-03-04T02:49:56.863Z,79.21
2017-03-04T02:50:11.903Z,79.31
2017-03-04T02:50:26.500Z,79.31
2017-03-04T02:50:41.107Z,78.83
2017-03-04T02:50:55.694Z,78.92
2017-03-04T02:51:10.334Z,78.92
2017-03-04T02:51:25.138Z,78.54
2017-03-04T02:51:39.789Z,78.83
2017-03-04T02:51:54.379Z,78.34
2017-03-04T02:52:08.935Z,78.54
2017-03-04T02:52:23.548Z,78.06
2017-03-04T02:52:38.143Z,77.76
2017-03-04T02:52:53.134Z,77.86
2017-03-04T02:53:07.662Z,78.06
2017-03-04T02:53:22.273Z,77.86
2017-03-04T02:53:36.885Z,77.48
2017-03-04T02:53:51.436Z,77.58
2017-03-04T02:54:06.002Z,77.76
2017-03-04T02:54:20.632Z,77.58
2017-03-04T02:54:35.238Z,77.67
2017-03-04T02:54:49.763Z,77.58
2017-03-04T02:55:04.359Z,77.58
2017-03-04T02:55:18.915Z,77.67
2017-03-04T02:55:33.544Z,77.67
2017-03-04T02:55:48.167Z,77.58
2017-03-04T02:56:02.727Z,77.58
2017-03-04T02:56:17.328Z,77.58
2017-03-04T02:56:31.904Z,77.58
2017-03-04T02:56:46.498Z,77.67
2017-03-04T02:57:01.116Z,77.58
2017-03-04T02:57:15.725Z,77.58
2017-03-04T02:57:30.347Z,77.67
2017-03-04T02:57:45.236Z,77.71
2017-03-04T02:57:59.824Z,77.61
2017-03-04T02:58:14.441Z,77.67
2017-03-04T02:58:29.046Z,77.58
2017-03-04T02:58:43.644Z,77.67
2017-03-04T02:58:58.255Z,77.76
2017-03-04T02:59:12.911Z,77.58
2017-03-04T02:59:27.505Z,77.58
2017-03-04T02:59:42.066Z,77.48
2017-03-04T02:59:56.648Z,77.67
2017-03-04T03:00:11.229Z,77.67
2017-03-04T03:00:25.828Z,77.58
2017-03-04T03:00:40.453Z,77.67
2017-03-04T03:00:55.022Z,77.58
2017-03-04T03:01:09.653Z,77.76
2017-03-04T03:01:24.248Z,77.48
2017-03-04T03:01:38.849Z,77.58
2017-03-04T03:01:53.383Z,77.58
2017-03-04T03:02:08.004Z,77.48
2017-03-04T03:02:22.895Z,77.58
2017-03-04T03:02:37.428Z,77.67
2017-03-04T03:02:51.997Z,77.58
2017-03-04T03:03:06.629Z,77.48
2017-03-04T03:03:21.269Z,77.58
2017-03-04T03:03:35.888Z,77.67
2017-03-04T03:03:50.505Z,77.58
2017-03-04T03:04:05.125Z,77.76
2017-03-04T03:04:19.792Z,77.58
2017-03-04T03:04:34.410Z,77.58
2017-03-04T03:04:49.043Z,77.67
2017-03-04T03:05:03.632Z,77.48
2017-03-04T03:05:18.263Z,77.76
2017-03-04T03:05:32.837Z,77.58
2017-03-04T03:05:47.481Z,77.67
2017-03-04T03:06:02.139Z,77.67
2017-03-04T03:06:16.881Z,77.58
2017-03-04T03:06:31.479Z,77.58
2017-03-04T03:06:46.056Z,77.67
2017-03-04T03:07:00.672Z,77.48
2017-03-04T03:07:15.270Z,77.09
2017-03-04T03:07:29.896Z,77.76
2017-03-04T03:07:44.526Z,77.76
2017-03-04T03:07:59.158Z,77.76
2017-03-04T03:08:13.806Z,77.48
2017-03-04T03:08:28.397Z,77.67
2017-03-04T03:08:43.035Z,77.76
2017-03-04T03:08:57.699Z,77.67
2017-03-04T03:09:12.283Z,77.67
2017-03-04T03:09:26.923Z,77.96
2017-03-04T03:09:41.549Z,78.15
2017-03-04T03:09:56.155Z,77.76
2017-03-04T03:10:10.783Z,77.67
2017-03-04T03:10:25.471Z,78.15
2017-03-04T03:10:40.087Z,77.76
2017-03-04T03:10:54.689Z,77.67
2017-03-04T03:11:09.338Z,77.58
2017-03-04T03:11:23.942Z,77.58
2017-03-04T03:11:38.593Z,77.67
2017-03-04T03:11:53.211Z,77.67
2017-03-04T03:12:07.815Z,77.96
2017-03-04T03:12:22.469Z,78.15
2017-03-04T03:12:37.130Z,77.67
2017-03-04T03:12:51.693Z,77.76
2017-03-04T03:13:06.324Z,77.76
2017-03-04T03:13:20.958Z,77.76
2017-03-04T03:13:35.536Z,77.58
2017-03-04T03:13:50.128Z,77.76
2017-03-04T03:14:04.675Z,77.86
2017-03-04T03:14:19.298Z,77.76
2017-03-04T03:14:33.874Z,77.86